createdAt,value
2019-02-20T00:00:54.526Z,78.04
2019-02-20T00:03:23.700Z,77.98
2019-02-20T00:05:51.401Z,78.05
2019-02-20T00:08:20.597Z,78.05
2019-02-20T00:10:50.172Z,78.17
2019-02-20T00:13:18.511Z,78.12
2019-02-20T00:15:45.998Z,78.15
2019-02-20T00:18:15.046Z,78.17
2019-02-20T00:20:42.532Z,78.31
2019-02-20T00:23:11.831Z,78.13
2019-02-20T00:25:39.381Z,78.03
2019-02-20T00:28:06.771Z,78.05
2019-02-20T00:30:34.172Z,78.02
2019-02-20T00:33:01.612Z,77.92
2019-02-20T00:35:29.005Z,77.87
2019-02-20T00:37:56.471Z,77.50
2019-02-20T00:40:23.895Z,77.33
2019-02-20T00:42:51.439Z,77.25
2019-02-20T00:45:37.581Z,77.14
2019-02-20T00:48:17.071Z,77.15
2019-02-20T00:50:44.988Z,77.16
2019-02-20T00:53:19.768Z,77.07
2019-02-20T00:55:47.136Z,77.18
2019-02-20T00:58:14.579Z,77.27
2019-02-20T01:00:41.977Z,77.15
2019-02-20T01:03:09.412Z,77.18
2019-02-20T01:05:36.829Z,77.21
2019-02-20T01:08:04.366Z,77.02
2019-02-20T01:10:31.741Z,77.11
2019-02-20T01:12:59.203Z,76.98
2019-02-20T01:15:26.566Z,76.87
2019-02-20T01:17:54.020Z,76.75
2019-02-20T01:20:21.386Z,76.75
2019-02-20T01:22:48.882Z,76.62
2019-02-20T01:25:16.273Z,76.67
2019-02-20T01:27:43.756Z,76.70
2019-02-20T01:30:11.800Z,76.61
2019-02-20T01:32:39.233Z,76.76
2019-02-20T01:35:06.747Z,76.55
2019-02-20T01:37:34.223Z,76.49
2019-02-20T01:40:01.618Z,76.24
2019-02-20T01:42:29.051Z,76.30
2019-02-20T01:44:56.477Z,76.47
2019-02-20T01:47:23.936Z,75.95
2019-02-20T01:49:51.301Z,76.08
2019-02-20T01:52:18.759Z,75.80
2019-02-20T01:54:46.166Z,76.08
2019-02-20T01:57:13.591Z,76.15
2019-02-20T01:59:40.981Z,76.07
2019-02-20T02:02:08.481Z,76.20
2019-02-20T02:04:35.873Z,76.16
2019-02-20T02:07:03.326Z,76.01
2019-02-20T02:09:30.741Z,76.21
2019-02-20T02:11:58.285Z,76.21
2019-02-20T02:14:26.251Z,76.15
2019-02-20T02:16:53.621Z,76.03
2019-02-20T02:19:21.062Z,75.95
2019-02-20T02:21:48.466Z,75.91
2019-02-20T02:24:15.892Z,76.04
2019-02-20T02:26:43.256Z,75.95
2019-02-20T02:29:10.708Z,76.12
2019-02-20T02:31:38.090Z,76.26
2019-02-20T02:34:05.547Z,76.32
2019-02-20T02:36:34.538Z,76.26
2019-02-20T02:39:02.119Z,76.42
2019-02-20T02:41:29.505Z,76.28
2019-02-20T02:43:57.309Z,76.59
2019-02-20T02:46:24.681Z,76.62
2019-02-20T02:48:52.161Z,76.62
2019-02-20T02:51:19.552Z,76.78
2019-02-20T02:53:47.007Z,76.76
2019-02-20T02:56:14.446Z,76.79
2019-02-20T02:58:41.892Z,76.97
2019-02-20T03:01:09.268Z,76.96
2019-02-20T03:03:36.731Z,77.04
2019-02-20T03:06:04.120Z,76.95
2019-02-20T03:08:31.651Z,77.19
2019-02-20T03:10:59.086Z,77.20
2019-02-20T03:13:26.581Z,77.35
2019-02-20T03:15:53.951Z,77.22
2019-02-20T03:18:21.386Z,77.37
2019-02-20T03:20:49.271Z,77.44
2019-02-20T03:23:16.776Z,77.50
2019-02-20T03:25:44.163Z,77.56
2019-02-20T03:28:11.582Z,77.62
2019-02-20T03:30:39.008Z,77.72
2019-02-20T03:33:06.523Z,77.63
2019-02-20T03:35:34.006Z,77.58
2019-02-20T03:38:01.586Z,77.26
2019-02-20T03:40:29.057Z,77.25
2019-02-20T03:42:56.457Z,77.30
2019-02-20T03:45:23.907Z,77.23
2019-02-20T03:47:51.305Z,77.47
2019-02-20T03:50:18.779Z,77.53
2019-02-20T03:52:46.171Z,77.43
2019-02-20T03:55:13.591Z,77.51
2019-02-20T03:57:41.015Z,77.55
2019-02-20T04:00:08.656Z,77.65
2019-02-20T04:02:36.034Z,77.78
2019-02-20T04:05:03.827Z,77.93
2019-02-20T04:07:31.253Z,78.23
2019-02-20T04:09:58.636Z,78.44
2019-02-20T04:12:26.017Z,78.64
2019-02-20T04:14:53.449Z,78.68
2019-02-20T04:17:20.851Z,78.74
2019-02-20T04:19:48.272Z,78.65
2019-02-20T04:22:15.672Z,78.56
2019-02-20T04:24:43.125Z,78.64
2019-02-20T04:27:10.493Z,78.76
2019-02-20T04:29:37.949Z,78.76
2019-02-20T04:32:05.403Z,78.82
2019-02-20T04:34:32.826Z,78.94
2019-02-20T04:37:00.232Z,79.04
2019-02-20T04:39:27.655Z,79.04
2019-02-20T04:41:55.076Z,78.88
2019-02-20T04:44:22.555Z,78.78
2019-02-20T04:46:50.006Z,78.62
2019-02-20T04:49:17.386Z,78.64
2019-02-20T04:51:44.819Z,78.46
2019-02-20T04:54:13.714Z,78.37
2019-02-20T04:56:41.452Z,78.49
2019-02-20T04:59:08.821Z,78.40
2019-02-20T05:01:36.337Z,78.46
2019-02-20T05:04:03.751Z,78.46
2019-02-20T05:06:31.186Z,78.29
2019-02-20T05:08:58.577Z,78.20
2019-02-20T05:11:26.023Z,78.18
2019-02-20T05:13:53.435Z,78.38
2019-02-20T05:16:20.887Z,78.34
2019-02-20T05:18:48.277Z,78.04
2019-02-20T05:21:15.695Z,78.22
2019-02-20T05:23:43.147Z,78.44
2019-02-20T05:26:10.611Z,78.17
2019-02-20T05:28:38.019Z,78.16
2019-02-20T05:31:05.441Z,78.27
2019-02-20T05:33:32.876Z,78.51
2019-02-20T05:36:00.647Z,78.71
2019-02-20T05:38:28.047Z,78.56
2019-02-20T05:40:55.537Z,78.50
2019-02-20T05:43:23.024Z,78.58
2019-02-20T05:45:50.447Z,78.36
2019-02-20T05:48:17.812Z,78.41
2019-02-20T05:50:45.292Z,78.49
2019-02-20T05:53:12.695Z,78.38
2019-02-20T05:55:40.120Z,78.34
2019-02-20T05:58:07.528Z,78.58
2019-02-20T06:00:34.982Z,78.69
2019-02-20T06:03:02.351Z,78.52
2019-02-20T06:05:29.799Z,78.53
2019-02-20T06:07:57.401Z,78.59
2019-02-20T06:10:24.909Z,78.71
2019-02-20T06:13:07.474Z,78.93
2019-02-20T06:15:43.106Z,78.70
2019-02-20T06:18:17.041Z,78.83
2019-02-20T06:20:53.664Z,79.02
2019-02-20T06:23:26.589Z,79.10
2019-02-20T06:25:57.606Z,79.29
2019-02-20T06:28:49.262Z,79.38
2019-02-20T06:31:17.012Z,79.28
2019-02-20T06:33:47.434Z,79.14
2019-02-20T06:36:38.400Z,79.14
2019-02-20T06:39:05.772Z,78.83
2019-02-20T06:41:39.245Z,78.93
2019-02-20T06:44:03.127Z,78.78
2019-02-20T06:46:31.082Z,78.53
2019-02-20T06:48:59.644Z,78.62
2019-02-20T06:51:30.436Z,78.69
2019-02-20T06:53:58.174Z,78.38
2019-02-20T06:56:25.596Z,78.41
2019-02-20T06:58:53.006Z,78.48
2019-02-20T07:01:20.441Z,78.26
2019-02-20T07:03:47.822Z,78.17
2019-02-20T07:06:49.351Z,78.14
2019-02-20T07:10:31.672Z,78.25
2019-02-20T07:13:11.767Z,78.25
2019-02-20T07:15:59.527Z,78.32
2019-02-20T07:18:57.992Z,78.22
2019-02-20T07:22:02.729Z,78.20
2019-02-20T07:25:02.802Z,78.21
2019-02-20T07:28:14.228Z,78.28
2019-02-20T07:30:41.857Z,77.77
2019-02-20T07:33:09.561Z,77.42
2019-02-20T07:35:37.202Z,77.17
2019-02-20T07:38:04.894Z,76.63
2019-02-20T07:40:32.332Z,76.65
2019-02-20T07:43:00.056Z,76.47
2019-02-20T07:45:29.281Z,76.22
2019-02-20T07:47:56.802Z,75.63
2019-02-20T07:50:24.183Z,75.85
2019-02-20T07:52:51.897Z,75.74
2019-02-20T07:55:19.281Z,75.67
2019-02-20T07:57:46.741Z,75.30
2019-02-20T08:00:14.652Z,75.07
2019-02-20T08:02:42.133Z,74.95
2019-02-20T08:05:09.597Z,74.87
2019-02-20T08:07:37.066Z,74.48
2019-02-20T08:10:05.629Z,74.30
2019-02-20T08:12:33.080Z,74.58
2019-02-20T08:15:00.686Z,74.91
2019-02-20T08:17:28.206Z,74.70
2019-02-20T08:19:55.675Z,74.63
2019-02-20T08:22:23.266Z,74.72
2019-02-20T08:24:50.773Z,74.86
2019-02-20T08:27:18.437Z,75.15
2019-02-20T08:29:46.110Z,75.14
2019-02-20T08:32:13.759Z,75.04
2019-02-20T08:34:41.311Z,75.10
2019-02-20T08:37:08.838Z,74.81
2019-02-20T08:39:36.294Z,74.94
2019-02-20T08:42:04.046Z,73.98
2019-02-20T08:44:31.944Z,74.09
2019-02-20T08:46:59.383Z,73.72
2019-02-20T08:49:26.911Z,73.92
2019-02-20T08:51:54.396Z,73.42
2019-02-20T08:54:21.882Z,73.37
2019-02-20T08:56:49.347Z,73.43
2019-02-20T08:59:16.868Z,73.05
2019-02-20T09:01:44.331Z,73.08
2019-02-20T09:04:11.893Z,72.79
2019-02-20T09:06:39.311Z,72.57
2019-02-20T09:09:06.826Z,73.27
2019-02-20T09:11:34.233Z,72.37
2019-02-20T09:14:01.746Z,71.61
2019-02-20T09:16:29.478Z,71.86
2019-02-20T09:18:56.966Z,71.50
2019-02-20T09:21:24.350Z,70.76
2019-02-20T09:23:51.928Z,70.65
2019-02-20T09:26:19.366Z,70.32
2019-02-20T09:28:46.887Z,69.30
2019-02-20T09:31:14.286Z,69.56
2019-02-20T09:33:41.815Z,69.19
2019-02-20T09:36:09.367Z,69.39
2019-02-20T09:38:36.822Z,68.62
2019-02-20T09:41:04.236Z,68.35
2019-02-20T09:43:31.757Z,68.08
2019-02-20T09:45:59.416Z,67.93
2019-02-20T09:48:26.987Z,67.74
2019-02-20T09:50:54.552Z,66.60
2019-02-20T09:53:22.171Z,66.79
2019-02-20T09:55:51.835Z,66.37
2019-02-20T09:58:19.398Z,66.66
2019-02-20T10:00:46.901Z,65.79
2019-02-20T10:03:14.322Z,64.77
2019-02-20T10:05:41.888Z,64.55
2019-02-20T10:08:09.349Z,64.29
2019-02-20T10:10:36.836Z,64.67
2019-02-20T10:13:04.233Z,64.08
2019-02-20T10:15:31.752Z,63.59
2019-02-20T10:18:00.017Z,63.09
2019-02-20T10:20:28.019Z,62.78
2019-02-20T10:22:55.688Z,62.88
2019-02-20T10:25:23.352Z,62.99
2019-02-20T10:27:50.831Z,62.38
2019-02-20T10:30:18.479Z,63.07
2019-02-20T10:32:46.001Z,63.00
2019-02-20T10:35:13.456Z,62.03
2019-02-20T10:37:40.911Z,61.05
2019-02-20T10:40:08.887Z,60.78
2019-02-20T10:42:36.311Z,59.98
2019-02-20T10:45:04.497Z,60.38
2019-02-20T10:47:31.931Z,59.35
2019-02-20T10:49:59.459Z,60.12
2019-02-20T10:52:27.801Z,60.06
2019-02-20T10:54:57.698Z,59.87
2019-02-20T10:57:24.792Z,59.79
2019-02-20T10:59:52.269Z,59.50
2019-02-20T11:02:19.916Z,58.29
2019-02-20T11:04:47.386Z,58.11
2019-02-20T11:07:15.020Z,58.85
2019-02-20T11:09:42.391Z,58.01
2019-02-20T11:12:10.311Z,58.75
2019-02-20T11:14:38.397Z,58.39
2019-02-20T11:17:05.877Z,58.58
2019-02-20T11:19:35.596Z,58.00
2019-02-20T11:22:03.306Z,58.21
2019-02-20T11:24:30.746Z,58.43
2019-02-20T11:26:58.617Z,57.16
2019-02-20T11:29:26.398Z,56.97
2019-02-20T11:31:53.891Z,56.25
2019-02-20T11:34:21.386Z,56.48
2019-02-20T11:36:49.487Z,56.47
2019-02-20T11:39:17.181Z,55.96
2019-02-20T11:41:44.721Z,55.29
2019-02-20T11:44:20.653Z,56.19
2019-02-20T11:46:41.707Z,55.43
2019-02-20T11:49:09.176Z,56.21
2019-02-20T11:51:37.106Z,55.63
2019-02-20T11:54:04.521Z,56.14
2019-02-20T11:56:33.592Z,56.53
2019-02-20T11:59:02.206Z,56.54
2019-02-20T12:01:30.811Z,56.43
2019-02-20T12:03:58.801Z,56.54
2019-02-20T12:06:26.292Z,56.59
2019-02-20T12:08:55.642Z,56.70
2019-02-20T12:11:23.332Z,56.71
2019-02-20T12:13:50.916Z,56.48
2019-02-20T12:16:19.129Z,56.39
2019-02-20T12:18:46.632Z,56.53
2019-02-20T12:21:17.731Z,56.57
2019-02-20T12:23:46.677Z,56.41
2019-02-20T12:26:14.751Z,56.42
2019-02-20T12:28:43.281Z,56.14
2019-02-20T12:31:13.773Z,55.96
2019-02-20T12:33:42.047Z,56.38
2019-02-20T12:36:10.466Z,56.43
2019-02-20T12:38:38.666Z,57.05
2019-02-20T12:41:06.082Z,57.43
2019-02-20T12:43:35.475Z,57.92
2019-02-20T12:46:02.906Z,58.20
2019-02-20T12:48:30.502Z,58.85
2019-02-20T12:50:57.957Z,58.93
2019-02-20T12:53:25.526Z,59.34
2019-02-20T12:56:31.122Z,59.18
2019-02-20T12:59:07.979Z,59.39
2019-02-20T13:02:24.456Z,58.87
2019-02-20T13:16:25.546Z,58.80
2019-02-20T13:19:00.376Z,60.51
2019-02-20T13:21:32.370Z,59.56
2019-02-20T13:24:00.197Z,59.29
2019-02-20T13:26:27.835Z,59.49
2019-02-20T13:29:04.555Z,59.60
2019-02-20T13:31:59.831Z,59.64
2019-02-20T13:34:36.592Z,59.76
2019-02-20T13:37:17.260Z,59.98
2019-02-20T13:39:44.733Z,59.68
2019-02-20T13:42:35.935Z,59.74
2019-02-20T13:45:03.291Z,59.97
2019-02-20T13:47:31.141Z,59.73
2019-02-20T13:49:58.598Z,59.89
2019-02-20T13:52:31.126Z,59.97
2019-02-20T13:54:59.466Z,60.07
2019-02-20T13:57:32.666Z,60.12
2019-02-20T14:00:00.846Z,60.14
2019-02-20T14:02:28.356Z,60.42
2019-02-20T14:04:56.276Z,60.49
2019-02-20T14:07:23.786Z,60.69
2019-02-20T14:09:51.246Z,60.96
2019-02-20T14:12:19.351Z,60.51
2019-02-20T14:14:46.842Z,60.74
2019-02-20T14:17:14.274Z,60.53
2019-02-20T14:19:41.821Z,60.28
2019-02-20T14:22:09.316Z,60.82
2019-02-20T14:24:36.781Z,60.31
2019-02-20T14:27:10.558Z,60.36
2019-02-20T14:29:33.945Z,60.65
2019-02-20T14:32:01.427Z,60.53
2019-02-20T14:34:28.941Z,60.67
2019-02-20T14:36:56.471Z,60.99
2019-02-20T14:39:23.889Z,60.78
2019-02-20T14:41:51.298Z,61.09
2019-02-20T14:44:18.788Z,60.99
2019-02-20T14:46:46.272Z,60.25
2019-02-20T14:49:13.733Z,60.30
2019-02-20T14:51:42.028Z,60.19
2019-02-20T14:54:09.631Z,60.68
2019-02-20T14:56:37.083Z,60.72
2019-02-20T14:59:04.562Z,60.60
2019-02-20T15:01:32.099Z,60.85
2019-02-20T15:03:59.603Z,60.46
2019-02-20T15:06:28.225Z,60.40
2019-02-20T15:08:56.214Z,60.17
2019-02-20T15:11:23.679Z,59.91
2019-02-20T15:13:51.152Z,60.27
2019-02-20T15:16:18.642Z,60.58
2019-02-20T15:18:46.394Z,59.49
2019-02-20T15:21:14.197Z,59.42
2019-02-20T15:23:42.194Z,59.51
2019-02-20T15:26:09.838Z,59.55
2019-02-20T15:28:37.576Z,59.95
2019-02-20T15:31:05.486Z,59.92
2019-02-20T15:33:33.215Z,59.81
2019-02-20T15:36:01.043Z,59.97
2019-02-20T15:38:28.924Z,60.21
2019-02-20T15:40:56.894Z,60.53
2019-02-20T15:43:24.735Z,60.79
2019-02-20T15:45:52.639Z,60.78
2019-02-20T15:48:23.326Z,60.94
2019-02-20T15:50:50.630Z,60.82
2019-02-20T15:53:18.433Z,61.30
2019-02-20T15:55:47.019Z,61.70
2019-02-20T15:58:15.389Z,61.07
2019-02-20T16:00:43.286Z,60.83
2019-02-20T16:03:10.959Z,60.95
2019-02-20T16:05:38.939Z,61.13
2019-02-20T16:08:07.360Z,61.32
2019-02-20T16:10:35.224Z,61.46
2019-02-20T16:13:03.743Z,61.41
2019-02-20T16:15:31.707Z,61.75
2019-02-20T16:17:59.449Z,61.97
2019-02-20T16:20:27.258Z,61.97
2019-02-20T16:22:55.105Z,62.06
2019-02-20T16:25:23.811Z,61.99
2019-02-20T16:27:51.783Z,62.26
2019-02-20T16:30:19.747Z,62.72
2019-02-20T16:32:47.675Z,62.73
2019-02-20T16:35:15.750Z,63.06
2019-02-20T16:37:43.688Z,62.96
2019-02-20T16:40:12.061Z,63.11
2019-02-20T16:42:40.014Z,63.56
2019-02-20T16:45:16.174Z,63.87
2019-02-20T16:47:43.988Z,64.18
2019-02-20T16:50:12.256Z,64.12
2019-02-20T16:52:40.218Z,64.04
2019-02-20T16:55:08.053Z,64.54
2019-02-20T16:57:37.113Z,64.59
2019-02-20T17:00:05.603Z,64.71
2019-02-20T17:02:33.515Z,64.76
2019-02-20T17:05:03.714Z,65.06
2019-02-20T17:07:32.128Z,65.30
2019-02-20T17:10:00.038Z,65.56
2019-02-20T17:12:30.397Z,65.36
2019-02-20T17:14:58.226Z,65.52
2019-02-20T17:17:26.228Z,65.70
2019-02-20T17:19:54.048Z,65.70
2019-02-20T17:22:22.363Z,65.79
2019-02-20T17:24:50.143Z,66.14
2019-02-20T17:27:18.111Z,65.96
2019-02-20T17:29:46.043Z,66.17
2019-02-20T17:32:13.993Z,66.40
2019-02-20T17:34:41.863Z,66.32
2019-02-20T17:37:09.779Z,66.63
2019-02-20T17:39:38.190Z,66.53
2019-02-20T17:42:06.389Z,66.67
2019-02-20T17:44:36.499Z,66.96
2019-02-20T17:47:04.943Z,66.86
2019-02-20T17:49:33.133Z,67.08
2019-02-20T17:52:01.100Z,66.94
2019-02-20T17:54:30.849Z,67.09
2019-02-20T17:56:58.818Z,66.91
2019-02-20T17:59:26.629Z,67.08
2019-02-20T18:01:54.573Z,67.11
2019-02-20T18:04:22.437Z,66.70
2019-02-20T18:06:50.458Z,66.86
2019-02-20T18:09:18.361Z,67.09
2019-02-20T18:11:46.573Z,67.33
2019-02-20T18:14:14.448Z,67.30
2019-02-20T18:16:42.375Z,67.38
2019-02-20T18:19:10.880Z,67.63
2019-02-20T18:21:38.836Z,67.51
2019-02-20T18:24:07.016Z,67.25
2019-02-20T18:26:35.371Z,67.19
2019-02-20T18:29:03.359Z,67.66
2019-02-20T18:31:31.358Z,67.63
2019-02-20T18:33:59.133Z,67.81
2019-02-20T18:36:27.523Z,67.80
2019-02-20T18:38:55.510Z,67.30
2019-02-20T18:41:23.653Z,67.82
2019-02-20T18:43:51.627Z,67.48
2019-02-20T18:46:19.563Z,68.10
2019-02-20T18:48:47.550Z,67.86
2019-02-20T18:51:15.898Z,67.94
2019-02-20T18:55:14.334Z,68.05
2019-02-20T18:57:39.649Z,67.88
2019-02-20T19:00:26.042Z,68.07
2019-02-20T19:02:54.109Z,67.99
2019-02-20T19:05:22.060Z,67.75
2019-02-20T19:07:50.288Z,68.16
2019-02-20T19:10:25.184Z,67.42
2019-02-20T19:13:57.296Z,67.83
2019-02-20T19:17:21.141Z,68.18
2019-02-20T19:20:11.162Z,67.67
2019-02-20T19:23:08.869Z,67.79
2019-02-20T19:26:16.886Z,67.14
2019-02-20T19:29:22.901Z,67.50
2019-02-20T19:32:24.635Z,67.17
2019-02-20T19:35:44.944Z,66.86
2019-02-20T19:39:00.574Z,66.58
2019-02-20T19:41:50.609Z,66.93
2019-02-20T19:44:44.281Z,66.95
2019-02-20T19:47:35.720Z,66.71
2019-02-20T19:50:38.327Z,67.23
2019-02-20T19:53:14.947Z,67.22
2019-02-20T19:56:09.081Z,67.32
2019-02-20T19:59:16.320Z,67.55
2019-02-20T20:02:28.227Z,67.61
2019-02-20T20:05:14.173Z,68.08
2019-02-20T20:07:54.684Z,68.37
2019-02-20T20:10:46.659Z,68.28
2019-02-20T20:13:48.688Z,68.17
2019-02-20T20:16:37.203Z,67.94
2019-02-20T20:19:32.059Z,67.69
2019-02-20T20:22:20.351Z,67.73
2019-02-20T20:25:04.597Z,66.87
2019-02-20T20:28:21.687Z,67.16
2019-02-20T20:31:25.179Z,67.01
2019-02-20T20:34:22.335Z,66.48
2019-02-20T20:37:15.952Z,66.63
2019-02-20T20:40:11.491Z,66.50
2019-02-20T20:43:38.986Z,66.91
2019-02-20T20:46:54.543Z,66.84
2019-02-20T20:49:59.492Z,66.76
2019-02-20T20:52:55.971Z,67.37
2019-02-20T20:55:58.766Z,67.05
2019-02-20T20:59:04.749Z,66.95
2019-02-20T21:02:03.066Z,67.02
2019-02-20T21:05:12.341Z,66.90
2019-02-20T21:08:10.491Z,67.69
2019-02-20T21:11:37.936Z,67.99
2019-02-20T21:14:47.471Z,68.17
2019-02-20T21:17:41.521Z,68.26
2019-02-20T21:20:31.778Z,68.91
2019-02-20T21:23:49.986Z,69.34
2019-02-20T21:27:05.036Z,69.50
2019-02-20T21:30:14.571Z,70.00
2019-02-20T21:33:17.116Z,70.45
2019-02-20T21:36:32.611Z,70.84
2019-02-20T21:39:32.056Z,70.71
2019-02-20T21:42:44.012Z,70.82
2019-02-20T21:45:50.305Z,70.73
2019-02-20T21:49:05.531Z,71.25
2019-02-20T21:52:25.271Z,71.38
2019-02-20T21:55:15.302Z,71.03
2019-02-20T21:58:15.371Z,70.61
2019-02-20T22:01:19.411Z,70.56
2019-02-20T22:04:25.666Z,70.60
2019-02-20T22:07:49.892Z,70.77
2019-02-20T22:10:51.322Z,71.27
2019-02-20T22:13:31.541Z,71.20
2019-02-20T22:16:31.865Z,71.39
2019-02-20T22:19:47.603Z,71.43
2019-02-20T22:22:53.996Z,71.57
2019-02-20T22:26:08.806Z,71.47
2019-02-20T22:28:58.591Z,71.70
2019-02-20T22:31:55.481Z,71.67
2019-02-20T22:34:47.776Z,71.97
2019-02-20T22:38:01.721Z,72.01
2019-02-20T22:40:55.565Z,72.10
2019-02-20T22:44:10.105Z,72.35
2019-02-20T22:46:52.661Z,72.37
2019-02-20T22:50:02.575Z,72.26
2019-02-20T22:52:42.717Z,72.45
2019-02-20T22:55:43.168Z,72.32
2019-02-20T22:58:38.316Z,72.32
2019-02-20T23:01:52.232Z,72.21
2019-02-20T23:04:50.295Z,72.13
2019-02-20T23:07:38.394Z,72.07
2019-02-20T23:10:27.651Z,72.57
2019-02-20T23:13:45.633Z,72.32
2019-02-20T23:16:56.928Z,72.65
2019-02-20T23:19:32.766Z,72.79
2019-02-20T23:22:18.013Z,72.63
2019-02-20T23:24:49.242Z,72.81
2019-02-20T23:27:23.365Z,72.97
2019-02-20T23:29:50.831Z,73.16
2019-02-20T23:32:18.740Z,73.26
2019-02-20T23:34:46.360Z,73.04
2019-02-20T23:37:17.011Z,73.22
2019-02-20T23:39:44.861Z,73.10
2019-02-20T23:42:12.716Z,73.34
2019-02-20T23:44:40.627Z,73.11
2019-02-20T23:47:11.387Z,73.08
2019-02-20T23:49:39.641Z,72.77
2019-02-20T23:52:10.284Z,72.81
2019-02-20T23:54:37.826Z,72.89
2019-02-20T23:57:14.755Z,72.63
2019-02-20T23:59:49.159Z,72.37
